Orlando, Florida
Current Conditions -  °F | °C
As of 3:53 AM on Monday 24 Nov 2014 (Local Time) from KORL Reporting Station
Overcast Overcast  
Wind Chill: 24°   Ceiling: 700
Heat Index: 24°   Visibility: 10mi
Dew Point: 23°   Wind: 10mph
Humidity: 94%   Direction: 190°S
Pressure: 29.92"   Gusts: NA
Location:  28.54°N, 81.38°W
Report Text: KORL 240853Z AUTO 19009KT 10SM OVC007 24/23 A2992 RMK AO2 CIG 005V011 SLP135 T02390228 55001
Loading
Personal Weather Stations






























Interactive Weather Map New forecast layout! Learn more

10-Day Weather Forecast

Advertisements
Track Severe Weather on mobile